sensor_id;sensor_type;location;lat;lon;timestamp;P1;durP1;ratioP1;P2;durP2;ratioP2
5191;SDS011;2615;44.524;11.284;2023-05-10T00:01:41;13.83;;;9.50;;
5191;SDS011;2615;44.524;11.284;2023-05-10T00:04:09;12.73;;;11.40;;
5191;SDS011;2615;44.524;11.284;2023-05-10T00:06:37;13.27;;;9.53;;
5191;SDS011;2615;44.524;11.284;2023-05-10T00:09:06;16.93;;;10.50;;
5191;SDS011;2615;44.524;11.284;2023-05-10T00:11:35;16.37;;;10.40;;
5191;SDS011;2615;44.524;11.284;2023-05-10T00:14:03;22.40;;;10.20;;
5191;SDS011;2615;44.524;11.284;2023-05-10T00:16:31;18.53;;;10.63;;
5191;SDS011;2615;44.524;11.284;2023-05-10T00:18:59;13.57;;;10.77;;
5191;SDS011;2615;44.524;11.284;2023-05-10T00:21:28;15.77;;;10.50;;
5191;SDS011;2615;44.524;11.284;2023-05-10T00:23:56;16.50;;;11.27;;
5191;SDS011;2615;44.524;11.284;2023-05-10T00:26:26;14.37;;;11.47;;
5191;SDS011;2615;44.524;11.284;2023-05-10T00:28:54;14.43;;;10.40;;
5191;SDS011;2615;44.524;11.284;2023-05-10T00:31:23;13.70;;;9.90;;
5191;SDS011;2615;44.524;11.284;2023-05-10T00:33:51;21.50;;;10.67;;
5191;SDS011;2615;44.524;11.284;2023-05-10T00:36:19;12.00;;;9.97;;
5191;SDS011;2615;44.524;11.284;2023-05-10T00:38:47;16.90;;;10.80;;
5191;SDS011;2615;44.524;11.284;2023-05-10T00:41:15;12.80;;;9.00;;
5191;SDS011;2615;44.524;11.284;2023-05-10T00:43:45;16.60;;;10.80;;
5191;SDS011;2615;44.524;11.284;2023-05-10T00:46:13;15.20;;;11.30;;
5191;SDS011;2615;44.524;11.284;2023-05-10T00:48:42;13.33;;;11.63;;
5191;SDS011;2615;44.524;11.284;2023-05-10T00:51:12;12.47;;;9.87;;
5191;SDS011;2615;44.524;11.284;2023-05-10T00:53:40;13.97;;;10.73;;
5191;SDS011;2615;44.524;11.284;2023-05-10T00:56:09;14.43;;;10.17;;
5191;SDS011;2615;44.524;11.284;2023-05-10T00:58:37;14.80;;;9.93;;
5191;SDS011;2615;44.524;11.284;2023-05-10T01:01:06;14.30;;;10.40;;
5191;SDS011;2615;44.524;11.284;2023-05-10T01:03:35;14.73;;;10.30;;
5191;SDS011;2615;44.524;11.284;2023-05-10T01:06:04;12.30;;;9.93;;
5191;SDS011;2615;44.524;11.284;2023-05-10T01:08:33;13.13;;;9.40;;
5191;SDS011;2615;44.524;11.284;2023-05-10T01:11:01;10.83;;;9.07;;
5191;SDS011;2615;44.524;11.284;2023-05-10T01:13:30;11.57;;;9.57;;
5191;SDS011;2615;44.524;11.284;2023-05-10T01:16:00;12.03;;;10.00;;
5191;SDS011;2615;44.524;11.284;2023-05-10T01:18:31;13.20;;;9.87;;
5191;SDS011;2615;44.524;11.284;2023-05-10T01:21:10;11.57;;;9.10;;
5191;SDS011;2615;44.524;11.284;2023-05-10T01:23:55;10.70;;;8.90;;
5191;SDS011;2615;44.524;11.284;2023-05-10T01:29:53;13.13;;;8.63;;
5191;SDS011;2615;44.524;11.284;2023-05-10T01:32:50;10.77;;;9.13;;
5191;SDS011;2615;44.524;11.284;2023-05-10T01:35:23;12.73;;;9.17;;
5191;SDS011;2615;44.524;11.284;2023-05-10T01:37:59;9.67;;;8.20;;
5191;SDS011;2615;44.524;11.284;2023-05-10T01:40:35;16.63;;;9.60;;
5191;SDS011;2615;44.524;11.284;2023-05-10T01:43:10;11.20;;;8.70;;
5191;SDS011;2615;44.524;11.284;2023-05-10T01:45:46;13.90;;;9.20;;
5191;SDS011;2615;44.524;11.284;2023-05-10T01:48:19;9.50;;;8.50;;
5191;SDS011;2615;44.524;11.284;2023-05-10T01:50:48;14.97;;;9.53;;
5191;SDS011;2615;44.524;11.284;2023-05-10T01:53:18;14.13;;;9.20;;
5191;SDS011;2615;44.524;11.284;2023-05-10T01:55:49;13.00;;;9.93;;
5191;SDS011;2615;44.524;11.284;2023-05-10T01:58:21;12.07;;;9.13;;
5191;SDS011;2615;44.524;11.284;2023-05-10T02:00:54;11.00;;;8.63;;
5191;SDS011;2615;44.524;11.284;2023-05-10T02:03:26;12.10;;;9.60;;
5191;SDS011;2615;44.524;11.284;2023-05-10T02:05:57;10.40;;;8.30;;
5191;SDS011;2615;44.524;11.284;2023-05-10T02:08:26;14.10;;;8.87;;
5191;SDS011;2615;44.524;11.284;2023-05-10T02:10:55;13.03;;;8.33;;
5191;SDS011;2615;44.524;11.284;2023-05-10T02:13:25;10.90;;;8.53;;
5191;SDS011;2615;44.524;11.284;2023-05-10T02:15:57;10.13;;;8.40;;
5191;SDS011;2615;44.524;11.284;2023-05-10T02:18:27;10.23;;;7.20;;
5191;SDS011;2615;44.524;11.284;2023-05-10T02:20:57;10.63;;;8.67;;
5191;SDS011;2615;44.524;11.284;2023-05-10T02:23:26;11.87;;;8.10;;
5191;SDS011;2615;44.524;11.284;2023-05-10T02:25:56;7.53;;;6.73;;
5191;SDS011;2615;44.524;11.284;2023-05-10T02:28:26;13.43;;;7.70;;
5191;SDS011;2615;44.524;11.284;2023-05-10T02:30:55;8.27;;;7.40;;
5191;SDS011;2615;44.524;11.284;2023-05-10T02:33:24;10.53;;;7.20;;
5191;SDS011;2615;44.524;11.284;2023-05-10T02:35:55;11.67;;;6.97;;
5191;SDS011;2615;44.524;11.284;2023-05-10T02:38:23;11.00;;;7.07;;
5191;SDS011;2615;44.524;11.284;2023-05-10T02:40:54;8.80;;;7.07;;
5191;SDS011;2615;44.524;11.284;2023-05-10T02:43:23;10.13;;;7.23;;
5191;SDS011;2615;44.524;11.284;2023-05-10T02:45:53;10.77;;;6.67;;
5191;SDS011;2615;44.524;11.284;2023-05-10T02:48:21;8.53;;;7.17;;
5191;SDS011;2615;44.524;11.284;2023-05-10T02:50:49;8.93;;;6.43;;
5191;SDS011;2615;44.524;11.284;2023-05-10T02:53:22;8.83;;;6.60;;
5191;SDS011;2615;44.524;11.284;2023-05-10T02:55:58;11.43;;;6.37;;
5191;SDS011;2615;44.524;11.284;2023-05-10T02:58:30;9.20;;;7.37;;
5191;SDS011;2615;44.524;11.284;2023-05-10T03:00:58;8.80;;;6.20;;
5191;SDS011;2615;44.524;11.284;2023-05-10T03:03:27;7.90;;;6.33;;
5191;SDS011;2615;44.524;11.284;2023-05-10T03:05:55;8.37;;;6.73;;
5191;SDS011;2615;44.524;11.284;2023-05-10T03:08:26;10.23;;;6.77;;
5191;SDS011;2615;44.524;11.284;2023-05-10T03:11:09;9.83;;;6.50;;
5191;SDS011;2615;44.524;11.284;2023-05-10T03:13:56;8.73;;;6.17;;
5191;SDS011;2615;44.524;11.284;2023-05-10T03:16:35;8.57;;;7.30;;
5191;SDS011;2615;44.524;11.284;2023-05-10T03:19:12;9.87;;;6.60;;
5191;SDS011;2615;44.524;11.284;2023-05-10T03:21:47;9.97;;;6.43;;
5191;SDS011;2615;44.524;11.284;2023-05-10T03:24:20;12.33;;;6.93;;
5191;SDS011;2615;44.524;11.284;2023-05-10T03:26:50;9.90;;;7.00;;
5191;SDS011;2615;44.524;11.284;2023-05-10T03:29:22;8.50;;;7.03;;
5191;SDS011;2615;44.524;11.284;2023-05-10T03:31:53;10.73;;;7.37;;
5191;SDS011;2615;44.524;11.284;2023-05-10T03:34:23;13.83;;;7.80;;
5191;SDS011;2615;44.524;11.284;2023-05-10T03:36:51;7.70;;;6.70;;
5191;SDS011;2615;44.524;11.284;2023-05-10T03:39:21;8.73;;;7.57;;
5191;SDS011;2615;44.524;11.284;2023-05-10T03:41:49;9.57;;;6.23;;
5191;SDS011;2615;44.524;11.284;2023-05-10T03:44:17;14.90;;;8.67;;
5191;SDS011;2615;44.524;11.284;2023-05-10T03:46:45;7.37;;;6.37;;
5191;SDS011;2615;44.524;11.284;2023-05-10T03:49:14;8.50;;;7.20;;
5191;SDS011;2615;44.524;11.284;2023-05-10T03:51:42;9.70;;;7.07;;
5191;SDS011;2615;44.524;11.284;2023-05-10T03:54:10;10.97;;;7.07;;
5191;SDS011;2615;44.524;11.284;2023-05-10T03:56:39;9.50;;;7.47;;
5191;SDS011;2615;44.524;11.284;2023-05-10T03:59:08;10.23;;;7.73;;
5191;SDS011;2615;44.524;11.284;2023-05-10T04:01:36;8.57;;;7.30;;
5191;SDS011;2615;44.524;11.284;2023-05-10T04:04:04;11.43;;;7.47;;
5191;SDS011;2615;44.524;11.284;2023-05-10T04:06:32;9.30;;;7.83;;
5191;SDS011;2615;44.524;11.284;2023-05-10T04:09:01;9.67;;;7.57;;
5191;SDS011;2615;44.524;11.284;2023-05-10T04:11:30;10.13;;;8.10;;
5191;SDS011;2615;44.524;11.284;2023-05-10T04:14:00;9.50;;;7.10;;
5191;SDS011;2615;44.524;11.284;2023-05-10T04:16:28;10.10;;;7.83;;
5191;SDS011;2615;44.524;11.284;2023-05-10T04:18:56;9.73;;;7.10;;
5191;SDS011;2615;44.524;11.284;2023-05-10T04:21:24;9.70;;;7.90;;
5191;SDS011;2615;44.524;11.284;2023-05-10T04:23:52;9.83;;;8.10;;
5191;SDS011;2615;44.524;11.284;2023-05-10T04:26:21;10.33;;;7.70;;
5191;SDS011;2615;44.524;11.284;2023-05-10T04:28:49;8.60;;;7.10;;
5191;SDS011;2615;44.524;11.284;2023-05-10T04:31:18;10.17;;;7.33;;
5191;SDS011;2615;44.524;11.284;2023-05-10T04:33:46;12.73;;;7.70;;
5191;SDS011;2615;44.524;11.284;2023-05-10T04:36:16;9.57;;;7.43;;
5191;SDS011;2615;44.524;11.284;2023-05-10T04:38:44;8.43;;;7.00;;
5191;SDS011;2615;44.524;11.284;2023-05-10T04:41:12;7.70;;;6.53;;
5191;SDS011;2615;44.524;11.284;2023-05-10T04:43:40;10.53;;;7.13;;
5191;SDS011;2615;44.524;11.284;2023-05-10T04:46:08;8.57;;;7.67;;
5191;SDS011;2615;44.524;11.284;2023-05-10T04:48:38;8.60;;;6.57;;
5191;SDS011;2615;44.524;11.284;2023-05-10T04:51:06;8.97;;;7.13;;
5191;SDS011;2615;44.524;11.284;2023-05-10T04:53:34;9.10;;;6.43;;
5191;SDS011;2615;44.524;11.284;2023-05-10T04:56:02;11.07;;;7.10;;
5191;SDS011;2615;44.524;11.284;2023-05-10T04:58:30;12.07;;;7.80;;
5191;SDS011;2615;44.524;11.284;2023-05-10T05:01:04;9.10;;;6.60;;
5191;SDS011;2615;44.524;11.284;2023-05-10T05:03:33;12.17;;;7.33;;
5191;SDS011;2615;44.524;11.284;2023-05-10T05:06:03;9.10;;;6.07;;
5191;SDS011;2615;44.524;11.284;2023-05-10T05:08:31;7.03;;;5.50;;
5191;SDS011;2615;44.524;11.284;2023-05-10T05:10:59;8.47;;;6.70;;
5191;SDS011;2615;44.524;11.284;2023-05-10T05:13:28;8.57;;;6.43;;
5191;SDS011;2615;44.524;11.284;2023-05-10T05:15:56;7.70;;;6.53;;
5191;SDS011;2615;44.524;11.284;2023-05-10T05:18:24;8.20;;;7.03;;
5191;SDS011;2615;44.524;11.284;2023-05-10T05:20:52;9.67;;;6.27;;
5191;SDS011;2615;44.524;11.284;2023-05-10T05:23:22;8.70;;;6.37;;
5191;SDS011;2615;44.524;11.284;2023-05-10T05:25:51;9.87;;;6.97;;
5191;SDS011;2615;44.524;11.284;2023-05-10T05:28:19;7.27;;;6.07;;
5191;SDS011;2615;44.524;11.284;2023-05-10T05:30:48;9.60;;;6.77;;
5191;SDS011;2615;44.524;11.284;2023-05-10T05:33:16;10.53;;;7.40;;
5191;SDS011;2615;44.524;11.284;2023-05-10T05:35:44;8.47;;;6.87;;
5191;SDS011;2615;44.524;11.284;2023-05-10T05:38:16;8.80;;;6.80;;
5191;SDS011;2615;44.524;11.284;2023-05-10T05:40:46;11.23;;;6.50;;
5191;SDS011;2615;44.524;11.284;2023-05-10T05:43:14;7.80;;;6.73;;
5191;SDS011;2615;44.524;11.284;2023-05-10T05:45:42;11.00;;;7.97;;
5191;SDS011;2615;44.524;11.284;2023-05-10T05:48:10;12.07;;;7.17;;
5191;SDS011;2615;44.524;11.284;2023-05-10T05:50:38;7.30;;;6.17;;
5191;SDS011;2615;44.524;11.284;2023-05-10T05:53:07;8.77;;;6.80;;
5191;SDS011;2615;44.524;11.284;2023-05-10T05:55:35;9.00;;;7.30;;
5191;SDS011;2615;44.524;11.284;2023-05-10T05:58:04;10.00;;;6.90;;
5191;SDS011;2615;44.524;11.284;2023-05-10T06:00:32;9.67;;;6.90;;
5191;SDS011;2615;44.524;11.284;2023-05-10T06:03:01;12.13;;;8.00;;
5191;SDS011;2615;44.524;11.284;2023-05-10T06:05:29;8.03;;;6.90;;
5191;SDS011;2615;44.524;11.284;2023-05-10T06:07:59;8.03;;;6.20;;
5191;SDS011;2615;44.524;11.284;2023-05-10T06:10:27;8.97;;;7.10;;
5191;SDS011;2615;44.524;11.284;2023-05-10T06:12:55;8.30;;;6.33;;
5191;SDS011;2615;44.524;11.284;2023-05-10T06:15:25;9.30;;;6.90;;
5191;SDS011;2615;44.524;11.284;2023-05-10T06:17:53;10.33;;;7.23;;
5191;SDS011;2615;44.524;11.284;2023-05-10T06:20:21;8.77;;;7.87;;
5191;SDS011;2615;44.524;11.284;2023-05-10T06:22:49;9.33;;;7.10;;
5191;SDS011;2615;44.524;11.284;2023-05-10T06:25:17;11.40;;;6.53;;
5191;SDS011;2615;44.524;11.284;2023-05-10T06:27:45;10.07;;;7.37;;
5191;SDS011;2615;44.524;11.284;2023-05-10T06:30:19;7.83;;;6.30;;
5191;SDS011;2615;44.524;11.284;2023-05-10T06:32:50;8.30;;;7.47;;
5191;SDS011;2615;44.524;11.284;2023-05-10T06:35:18;9.50;;;7.57;;
5191;SDS011;2615;44.524;11.284;2023-05-10T06:37:46;8.60;;;7.20;;
5191;SDS011;2615;44.524;11.284;2023-05-10T06:40:15;8.83;;;7.33;;
5191;SDS011;2615;44.524;11.284;2023-05-10T06:42:43;9.93;;;8.23;;
5191;SDS011;2615;44.524;11.284;2023-05-10T06:45:12;8.83;;;7.40;;
5191;SDS011;2615;44.524;11.284;2023-05-10T06:47:42;10.40;;;8.13;;
5191;SDS011;2615;44.524;11.284;2023-05-10T06:50:12;11.13;;;8.30;;
5191;SDS011;2615;44.524;11.284;2023-05-10T06:52:40;10.60;;;7.70;;
5191;SDS011;2615;44.524;11.284;2023-05-10T06:55:09;8.93;;;7.40;;
5191;SDS011;2615;44.524;11.284;2023-05-10T06:57:38;9.33;;;7.50;;
5191;SDS011;2615;44.524;11.284;2023-05-10T07:00:06;10.27;;;6.90;;
5191;SDS011;2615;44.524;11.284;2023-05-10T07:02:35;9.00;;;7.67;;
5191;SDS011;2615;44.524;11.284;2023-05-10T07:05:04;10.97;;;8.47;;
5191;SDS011;2615;44.524;11.284;2023-05-10T07:07:34;9.37;;;6.57;;
5191;SDS011;2615;44.524;11.284;2023-05-10T07:10:02;10.73;;;7.13;;
5191;SDS011;2615;44.524;11.284;2023-05-10T07:12:31;8.40;;;6.13;;
5191;SDS011;2615;44.524;11.284;2023-05-10T07:14:59;8.73;;;7.10;;
5191;SDS011;2615;44.524;11.284;2023-05-10T07:17:27;9.00;;;7.70;;
5191;SDS011;2615;44.524;11.284;2023-05-10T07:19:55;8.83;;;6.40;;
5191;SDS011;2615;44.524;11.284;2023-05-10T07:22:24;8.17;;;6.60;;
5191;SDS011;2615;44.524;11.284;2023-05-10T07:24:54;8.23;;;7.10;;
5191;SDS011;2615;44.524;11.284;2023-05-10T07:27:22;7.13;;;6.07;;
5191;SDS011;2615;44.524;11.284;2023-05-10T07:29:50;9.63;;;7.30;;
5191;SDS011;2615;44.524;11.284;2023-05-10T07:32:18;10.13;;;7.50;;
5191;SDS011;2615;44.524;11.284;2023-05-10T07:34:46;7.10;;;6.10;;
5191;SDS011;2615;44.524;11.284;2023-05-10T07:37:14;9.70;;;6.80;;
5191;SDS011;2615;44.524;11.284;2023-05-10T07:39:43;8.90;;;7.13;;
5191;SDS011;2615;44.524;11.284;2023-05-10T07:42:12;9.30;;;6.90;;
5191;SDS011;2615;44.524;11.284;2023-05-10T07:44:40;7.80;;;6.53;;
5191;SDS011;2615;44.524;11.284;2023-05-10T07:47:08;9.60;;;6.40;;
5191;SDS011;2615;44.524;11.284;2023-05-10T07:49:37;8.00;;;6.90;;
5191;SDS011;2615;44.524;11.284;2023-05-10T07:52:05;10.57;;;6.43;;
5191;SDS011;2615;44.524;11.284;2023-05-10T07:54:33;8.70;;;6.80;;
5191;SDS011;2615;44.524;11.284;2023-05-10T07:57:01;8.30;;;6.00;;
5191;SDS011;2615;44.524;11.284;2023-05-10T07:59:31;8.07;;;6.63;;
5191;SDS011;2615;44.524;11.284;2023-05-10T08:01:59;7.73;;;6.20;;
5191;SDS011;2615;44.524;11.284;2023-05-10T08:04:27;7.40;;;6.00;;
5191;SDS011;2615;44.524;11.284;2023-05-10T08:06:55;7.23;;;6.50;;
5191;SDS011;2615;44.524;11.284;2023-05-10T08:09:23;8.73;;;6.60;;
5191;SDS011;2615;44.524;11.284;2023-05-10T08:11:51;7.73;;;5.17;;
5191;SDS011;2615;44.524;11.284;2023-05-10T08:14:19;6.80;;;5.47;;
5191;SDS011;2615;44.524;11.284;2023-05-10T08:16:49;8.67;;;6.53;;
5191;SDS011;2615;44.524;11.284;2023-05-10T08:19:17;9.03;;;7.10;;
5191;SDS011;2615;44.524;11.284;2023-05-10T08:21:45;8.70;;;6.57;;
5191;SDS011;2615;44.524;11.284;2023-05-10T08:24:14;9.47;;;6.73;;
5191;SDS011;2615;44.524;11.284;2023-05-10T08:26:42;9.10;;;6.40;;
5191;SDS011;2615;44.524;11.284;2023-05-10T08:29:10;8.20;;;6.27;;
5191;SDS011;2615;44.524;11.284;2023-05-10T08:31:38;8.90;;;6.90;;
5191;SDS011;2615;44.524;11.284;2023-05-10T08:34:08;8.60;;;7.13;;
5191;SDS011;2615;44.524;11.284;2023-05-10T08:36:36;8.77;;;7.13;;
5191;SDS011;2615;44.524;11.284;2023-05-10T08:39:04;10.43;;;6.73;;
5191;SDS011;2615;44.524;11.284;2023-05-10T08:41:41;10.40;;;6.77;;
5191;SDS011;2615;44.524;11.284;2023-05-10T08:44:12;10.37;;;7.13;;
5191;SDS011;2615;44.524;11.284;2023-05-10T08:46:41;9.17;;;6.80;;
5191;SDS011;2615;44.524;11.284;2023-05-10T08:49:15;10.00;;;7.50;;
5191;SDS011;2615;44.524;11.284;2023-05-10T08:51:47;10.30;;;7.17;;
5191;SDS011;2615;44.524;11.284;2023-05-10T08:54:19;9.23;;;6.87;;
5191;SDS011;2615;44.524;11.284;2023-05-10T08:56:48;7.90;;;6.83;;
5191;SDS011;2615;44.524;11.284;2023-05-10T08:59:16;11.30;;;8.27;;
5191;SDS011;2615;44.524;11.284;2023-05-10T09:01:44;12.97;;;6.70;;
5191;SDS011;2615;44.524;11.284;2023-05-10T09:04:16;7.87;;;6.77;;
5191;SDS011;2615;44.524;11.284;2023-05-10T09:06:45;8.53;;;6.47;;
5191;SDS011;2615;44.524;11.284;2023-05-10T09:09:13;7.80;;;6.67;;
5191;SDS011;2615;44.524;11.284;2023-05-10T09:11:43;16.50;;;7.10;;
5191;SDS011;2615;44.524;11.284;2023-05-10T09:14:11;6.50;;;5.83;;
5191;SDS011;2615;44.524;11.284;2023-05-10T09:16:40;9.00;;;6.93;;
5191;SDS011;2615;44.524;11.284;2023-05-10T09:19:08;6.93;;;5.73;;
5191;SDS011;2615;44.524;11.284;2023-05-10T09:21:39;7.43;;;6.53;;
5191;SDS011;2615;44.524;11.284;2023-05-10T09:24:07;9.33;;;6.50;;
5191;SDS011;2615;44.524;11.284;2023-05-10T09:26:39;11.20;;;7.13;;
5191;SDS011;2615;44.524;11.284;2023-05-10T09:29:13;8.20;;;6.90;;
5191;SDS011;2615;44.524;11.284;2023-05-10T09:31:44;8.70;;;7.03;;
5191;SDS011;2615;44.524;11.284;2023-05-10T09:34:17;8.00;;;7.07;;
5191;SDS011;2615;44.524;11.284;2023-05-10T09:36:52;9.07;;;7.00;;
5191;SDS011;2615;44.524;11.284;2023-05-10T09:39:20;10.53;;;7.13;;
5191;SDS011;2615;44.524;11.284;2023-05-10T09:41:57;7.60;;;6.80;;
5191;SDS011;2615;44.524;11.284;2023-05-10T09:44:27;7.60;;;6.80;;
5191;SDS011;2615;44.524;11.284;2023-05-10T09:46:55;7.90;;;6.83;;
5191;SDS011;2615;44.524;11.284;2023-05-10T09:49:23;9.20;;;7.10;;
5191;SDS011;2615;44.524;11.284;2023-05-10T09:52:02;7.70;;;6.90;;
5191;SDS011;2615;44.524;11.284;2023-05-10T09:54:31;9.53;;;7.17;;
5191;SDS011;2615;44.524;11.284;2023-05-10T09:57:00;8.37;;;6.30;;
5191;SDS011;2615;44.524;11.284;2023-05-10T09:59:28;7.67;;;6.90;;
5191;SDS011;2615;44.524;11.284;2023-05-10T10:01:57;8.40;;;6.30;;
5191;SDS011;2615;44.524;11.284;2023-05-10T10:04:27;8.23;;;6.70;;
5191;SDS011;2615;44.524;11.284;2023-05-10T10:06:59;9.53;;;6.50;;
5191;SDS011;2615;44.524;11.284;2023-05-10T10:09:31;8.00;;;7.07;;
5191;SDS011;2615;44.524;11.284;2023-05-10T10:12:00;8.77;;;5.80;;
5191;SDS011;2615;44.524;11.284;2023-05-10T10:14:28;7.20;;;5.93;;
5191;SDS011;2615;44.524;11.284;2023-05-10T10:16:57;15.23;;;6.40;;
5191;SDS011;2615;44.524;11.284;2023-05-10T10:19:30;10.63;;;6.40;;
5191;SDS011;2615;44.524;11.284;2023-05-10T10:22:03;10.10;;;6.17;;
5191;SDS011;2615;44.524;11.284;2023-05-10T10:24:31;13.60;;;6.63;;
5191;SDS011;2615;44.524;11.284;2023-05-10T10:27:01;12.03;;;6.80;;
5191;SDS011;2615;44.524;11.284;2023-05-10T10:29:40;13.50;;;7.60;;
5191;SDS011;2615;44.524;11.284;2023-05-10T10:32:19;9.33;;;6.57;;
5191;SDS011;2615;44.524;11.284;2023-05-10T10:34:51;8.33;;;7.30;;
5191;SDS011;2615;44.524;11.284;2023-05-10T10:37:23;8.50;;;6.97;;
5191;SDS011;2615;44.524;11.284;2023-05-10T10:40:23;9.07;;;7.00;;
5191;SDS011;2615;44.524;11.284;2023-05-10T10:42:53;7.07;;;5.90;;
5191;SDS011;2615;44.524;11.284;2023-05-10T10:45:21;9.30;;;6.40;;
5191;SDS011;2615;44.524;11.284;2023-05-10T10:47:56;18.50;;;7.50;;
5191;SDS011;2615;44.524;11.284;2023-05-10T10:50:48;8.07;;;7.27;;
5191;SDS011;2615;44.524;11.284;2023-05-10T10:53:27;9.27;;;7.50;;
5191;SDS011;2615;44.524;11.284;2023-05-10T10:56:04;15.20;;;7.90;;
5191;SDS011;2615;44.524;11.284;2023-05-10T10:58:36;12.60;;;8.10;;
5191;SDS011;2615;44.524;11.284;2023-05-10T11:01:11;8.47;;;7.33;;
5191;SDS011;2615;44.524;11.284;2023-05-10T11:03:54;8.43;;;6.40;;
5191;SDS011;2615;44.524;11.284;2023-05-10T11:06:37;12.20;;;8.03;;
5191;SDS011;2615;44.524;11.284;2023-05-10T11:09:08;8.97;;;7.93;;
5191;SDS011;2615;44.524;11.284;2023-05-10T11:11:48;8.93;;;7.20;;
5191;SDS011;2615;44.524;11.284;2023-05-10T11:14:19;8.77;;;7.37;;
5191;SDS011;2615;44.524;11.284;2023-05-10T11:16:48;9.13;;;7.17;;
5191;SDS011;2615;44.524;11.284;2023-05-10T11:19:17;8.37;;;6.50;;
5191;SDS011;2615;44.524;11.284;2023-05-10T11:21:47;10.07;;;7.50;;
5191;SDS011;2615;44.524;11.284;2023-05-10T11:24:17;9.80;;;7.00;;
5191;SDS011;2615;44.524;11.284;2023-05-10T11:26:49;11.00;;;7.60;;
5191;SDS011;2615;44.524;11.284;2023-05-10T11:29:18;9.60;;;8.17;;
5191;SDS011;2615;44.524;11.284;2023-05-10T11:31:46;8.30;;;7.13;;
5191;SDS011;2615;44.524;11.284;2023-05-10T11:34:24;9.93;;;7.13;;
5191;SDS011;2615;44.524;11.284;2023-05-10T11:36:54;8.80;;;6.60;;
5191;SDS011;2615;44.524;11.284;2023-05-10T11:39:27;9.70;;;7.73;;
5191;SDS011;2615;44.524;11.284;2023-05-10T11:41:55;10.83;;;7.47;;
5191;SDS011;2615;44.524;11.284;2023-05-10T11:44:24;9.60;;;7.80;;
5191;SDS011;2615;44.524;11.284;2023-05-10T11:46:58;8.97;;;7.80;;
5191;SDS011;2615;44.524;11.284;2023-05-10T11:49:26;8.20;;;6.67;;
5191;SDS011;2615;44.524;11.284;2023-05-10T11:52:03;9.77;;;6.80;;
5191;SDS011;2615;44.524;11.284;2023-05-10T11:54:33;10.93;;;6.87;;
5191;SDS011;2615;44.524;11.284;2023-05-10T11:57:02;8.53;;;6.87;;
5191;SDS011;2615;44.524;11.284;2023-05-10T11:59:31;11.60;;;7.07;;
5191;SDS011;2615;44.524;11.284;2023-05-10T12:01:59;7.43;;;6.10;;
5191;SDS011;2615;44.524;11.284;2023-05-10T12:04:27;9.97;;;7.77;;
5191;SDS011;2615;44.524;11.284;2023-05-10T12:06:56;10.07;;;7.20;;
5191;SDS011;2615;44.524;11.284;2023-05-10T12:09:25;7.90;;;6.10;;
5191;SDS011;2615;44.524;11.284;2023-05-10T12:11:57;8.30;;;5.93;;
5191;SDS011;2615;44.524;11.284;2023-05-10T12:14:25;7.87;;;6.20;;
5191;SDS011;2615;44.524;11.284;2023-05-10T12:16:54;10.87;;;6.07;;
5191;SDS011;2615;44.524;11.284;2023-05-10T12:19:24;7.33;;;5.90;;
5191;SDS011;2615;44.524;11.284;2023-05-10T12:21:52;7.10;;;6.03;;
5191;SDS011;2615;44.524;11.284;2023-05-10T12:24:21;7.17;;;5.30;;
5191;SDS011;2615;44.524;11.284;2023-05-10T12:26:50;6.20;;;5.60;;
5191;SDS011;2615;44.524;11.284;2023-05-10T12:29:20;6.73;;;5.97;;
5191;SDS011;2615;44.524;11.284;2023-05-10T12:31:49;7.13;;;5.60;;
5191;SDS011;2615;44.524;11.284;2023-05-10T12:34:30;5.97;;;5.37;;
5191;SDS011;2615;44.524;11.284;2023-05-10T12:36:59;7.97;;;5.03;;
5191;SDS011;2615;44.524;11.284;2023-05-10T12:39:37;5.93;;;5.33;;
5191;SDS011;2615;44.524;11.284;2023-05-10T12:42:06;6.30;;;5.30;;
5191;SDS011;2615;44.524;11.284;2023-05-10T12:44:36;6.13;;;5.40;;
5191;SDS011;2615;44.524;11.284;2023-05-10T12:47:04;7.57;;;5.80;;
5191;SDS011;2615;44.524;11.284;2023-05-10T12:49:33;6.63;;;5.43;;
5191;SDS011;2615;44.524;11.284;2023-05-10T12:52:01;6.63;;;5.20;;
5191;SDS011;2615;44.524;11.284;2023-05-10T12:54:29;6.83;;;5.40;;
5191;SDS011;2615;44.524;11.284;2023-05-10T12:56:57;14.13;;;5.53;;
5191;SDS011;2615;44.524;11.284;2023-05-10T12:59:26;6.70;;;5.73;;
5191;SDS011;2615;44.524;11.284;2023-05-10T13:01:56;7.13;;;5.93;;
5191;SDS011;2615;44.524;11.284;2023-05-10T13:04:25;6.30;;;5.60;;
5191;SDS011;2615;44.524;11.284;2023-05-10T13:06:54;8.20;;;5.87;;
5191;SDS011;2615;44.524;11.284;2023-05-10T13:09:25;6.23;;;5.43;;
5191;SDS011;2615;44.524;11.284;2023-05-10T13:11:55;6.80;;;5.60;;
5191;SDS011;2615;44.524;11.284;2023-05-10T13:14:23;8.53;;;5.77;;
5191;SDS011;2615;44.524;11.284;2023-05-10T13:16:52;6.63;;;4.80;;
5191;SDS011;2615;44.524;11.284;2023-05-10T13:19:22;6.10;;;5.50;;
5191;SDS011;2615;44.524;11.284;2023-05-10T13:21:50;7.40;;;5.87;;
5191;SDS011;2615;44.524;11.284;2023-05-10T13:24:18;6.87;;;5.37;;
5191;SDS011;2615;44.524;11.284;2023-05-10T13:26:47;6.20;;;5.60;;
5191;SDS011;2615;44.524;11.284;2023-05-10T13:29:15;5.60;;;4.93;;
5191;SDS011;2615;44.524;11.284;2023-05-10T13:31:44;5.77;;;4.17;;
5191;SDS011;2615;44.524;11.284;2023-05-10T13:34:13;9.93;;;5.27;;
5191;SDS011;2615;44.524;11.284;2023-05-10T13:36:42;7.40;;;5.70;;
5191;SDS011;2615;44.524;11.284;2023-05-10T13:39:11;8.07;;;6.27;;
5191;SDS011;2615;44.524;11.284;2023-05-10T13:41:39;7.80;;;5.57;;
5191;SDS011;2615;44.524;11.284;2023-05-10T13:44:07;5.83;;;5.17;;
5191;SDS011;2615;44.524;11.284;2023-05-10T13:46:35;7.90;;;5.83;;
5191;SDS011;2615;44.524;11.284;2023-05-10T13:49:04;6.13;;;5.50;;
5191;SDS011;2615;44.524;11.284;2023-05-10T13:51:33;8.37;;;5.33;;
5191;SDS011;2615;44.524;11.284;2023-05-10T13:54:03;8.30;;;5.60;;
5191;SDS011;2615;44.524;11.284;2023-05-10T13:56:31;6.67;;;5.10;;
5191;SDS011;2615;44.524;11.284;2023-05-10T13:58:59;6.90;;;5.70;;
5191;SDS011;2615;44.524;11.284;2023-05-10T14:01:28;6.43;;;4.97;;
5191;SDS011;2615;44.524;11.284;2023-05-10T14:03:56;7.40;;;4.97;;
5191;SDS011;2615;44.524;11.284;2023-05-10T14:06:24;6.00;;;5.37;;
5191;SDS011;2615;44.524;11.284;2023-05-10T14:08:53;7.00;;;5.27;;
5191;SDS011;2615;44.524;11.284;2023-05-10T14:11:22;8.13;;;5.60;;
5191;SDS011;2615;44.524;11.284;2023-05-10T14:13:50;7.47;;;5.93;;
5191;SDS011;2615;44.524;11.284;2023-05-10T14:16:19;6.47;;;4.57;;
5191;SDS011;2615;44.524;11.284;2023-05-10T14:18:47;8.80;;;5.63;;
5191;SDS011;2615;44.524;11.284;2023-05-10T14:21:15;8.27;;;5.70;;
5191;SDS011;2615;44.524;11.284;2023-05-10T14:23:43;7.13;;;5.30;;
5191;SDS011;2615;44.524;11.284;2023-05-10T14:26:12;6.50;;;5.50;;
5191;SDS011;2615;44.524;11.284;2023-05-10T14:28:41;8.43;;;5.90;;
5191;SDS011;2615;44.524;11.284;2023-05-10T14:31:09;7.50;;;6.17;;
5191;SDS011;2615;44.524;11.284;2023-05-10T14:33:38;7.50;;;6.30;;
5191;SDS011;2615;44.524;11.284;2023-05-10T14:36:06;9.33;;;5.87;;
5191;SDS011;2615;44.524;11.284;2023-05-10T14:38:34;8.97;;;6.20;;
5191;SDS011;2615;44.524;11.284;2023-05-10T14:41:03;10.57;;;7.03;;
5191;SDS011;2615;44.524;11.284;2023-05-10T14:43:31;7.80;;;6.60;;
5191;SDS011;2615;44.524;11.284;2023-05-10T14:46:01;10.00;;;7.33;;
5191;SDS011;2615;44.524;11.284;2023-05-10T14:48:29;8.30;;;6.57;;
5191;SDS011;2615;44.524;11.284;2023-05-10T14:50:57;10.17;;;8.67;;
5191;SDS011;2615;44.524;11.284;2023-05-10T14:53:25;9.20;;;6.83;;
5191;SDS011;2615;44.524;11.284;2023-05-10T14:55:53;9.10;;;7.43;;
5191;SDS011;2615;44.524;11.284;2023-05-10T14:58:21;11.23;;;8.00;;
5191;SDS011;2615;44.524;11.284;2023-05-10T15:00:49;9.17;;;8.10;;
5191;SDS011;2615;44.524;11.284;2023-05-10T15:03:19;10.13;;;8.17;;
5191;SDS011;2615;44.524;11.284;2023-05-10T15:05:48;11.63;;;10.10;;
5191;SDS011;2615;44.524;11.284;2023-05-10T15:08:16;8.77;;;7.73;;
5191;SDS011;2615;44.524;11.284;2023-05-10T15:10:44;10.17;;;8.90;;
5191;SDS011;2615;44.524;11.284;2023-05-10T15:13:12;11.30;;;7.97;;
5191;SDS011;2615;44.524;11.284;2023-05-10T15:15:40;10.60;;;9.50;;